sensor_id;sensor_type;location;lat;lon;timestamp;temperature;humidity
3492;DHT22;1760;52.480;13.422;2023-08-17T00:01:42;22.00;99.90
3492;DHT22;1760;52.480;13.422;2023-08-17T00:04:09;22.00;99.90
3492;DHT22;1760;52.480;13.422;2023-08-17T00:06:36;22.00;99.90
3492;DHT22;1760;52.480;13.422;2023-08-17T00:09:03;22.00;99.90
3492;DHT22;1760;52.480;13.422;2023-08-17T00:11:30;22.00;99.90
3492;DHT22;1760;52.480;13.422;2023-08-17T00:13:58;22.00;99.90
3492;DHT22;1760;52.480;13.422;2023-08-17T00:16:25;22.00;99.90
3492;DHT22;1760;52.480;13.422;2023-08-17T00:18:52;21.90;99.90
3492;DHT22;1760;52.480;13.422;2023-08-17T00:21:19;21.90;99.90
3492;DHT22;1760;52.480;13.422;2023-08-17T00:23:46;21.80;99.90
3492;DHT22;1760;52.480;13.422;2023-08-17T00:26:13;21.80;99.90
3492;DHT22;1760;52.480;13.422;2023-08-17T00:28:40;21.80;99.90
3492;DHT22;1760;52.480;13.422;2023-08-17T00:31:08;21.80;99.90
3492;DHT22;1760;52.480;13.422;2023-08-17T00:33:35;21.80;99.90
3492;DHT22;1760;52.480;13.422;2023-08-17T00:36:03;21.80;99.90
3492;DHT22;1760;52.480;13.422;2023-08-17T00:38:30;21.70;99.90
3492;DHT22;1760;52.480;13.422;2023-08-17T00:40:56;21.70;99.90
3492;DHT22;1760;52.480;13.422;2023-08-17T00:43:23;21.60;99.90
3492;DHT22;1760;52.480;13.422;2023-08-17T00:45:50;21.60;99.90
3492;DHT22;1760;52.480;13.422;2023-08-17T00:48:19;21.60;99.90
3492;DHT22;1760;52.480;13.422;2023-08-17T00:50:47;21.50;99.90
3492;DHT22;1760;52.480;13.422;2023-08-17T00:53:17;21.50;99.90
3492;DHT22;1760;52.480;13.422;2023-08-17T00:55:47;21.50;99.90
3492;DHT22;1760;52.480;13.422;2023-08-17T00:58:15;21.50;99.90
3492;DHT22;1760;52.480;13.422;2023-08-17T01:00:42;21.50;99.90
3492;DHT22;1760;52.480;13.422;2023-08-17T01:03:08;21.40;99.90
3492;DHT22;1760;52.480;13.422;2023-08-17T01:05:37;21.50;99.90
3492;DHT22;1760;52.480;13.422;2023-08-17T01:08:04;21.50;99.90
3492;DHT22;1760;52.480;13.422;2023-08-17T01:10:38;21.50;99.90
3492;DHT22;1760;52.480;13.422;2023-08-17T01:13:12;21.50;99.90
3492;DHT22;1760;52.480;13.422;2023-08-17T01:15:42;21.40;99.90
3492;DHT22;1760;52.480;13.422;2023-08-17T01:18:20;21.40;99.90
3492;DHT22;1760;52.480;13.422;2023-08-17T01:20:50;21.30;99.90
3492;DHT22;1760;52.480;13.422;2023-08-17T01:23:20;21.30;99.90
3492;DHT22;1760;52.480;13.422;2023-08-17T01:25:48;21.20;99.90
3492;DHT22;1760;52.480;13.422;2023-08-17T01:28:15;21.20;99.90
3492;DHT22;1760;52.480;13.422;2023-08-17T01:30:47;21.20;99.90
3492;DHT22;1760;52.480;13.422;2023-08-17T01:33:23;21.20;99.90
3492;DHT22;1760;52.480;13.422;2023-08-17T01:35:57;21.10;99.90
3492;DHT22;1760;52.480;13.422;2023-08-17T01:38:29;21.20;99.90
3492;DHT22;1760;52.480;13.422;2023-08-17T01:40:58;21.10;99.90
3492;DHT22;1760;52.480;13.422;2023-08-17T01:43:28;21.10;99.90
3492;DHT22;1760;52.480;13.422;2023-08-17T01:45:55;21.10;99.90
3492;DHT22;1760;52.480;13.422;2023-08-17T01:48:22;21.00;99.90
3492;DHT22;1760;52.480;13.422;2023-08-17T01:50:49;21.00;99.90
3492;DHT22;1760;52.480;13.422;2023-08-17T01:53:16;20.90;99.90
3492;DHT22;1760;52.480;13.422;2023-08-17T01:55:44;20.90;99.90
3492;DHT22;1760;52.480;13.422;2023-08-17T01:58:11;20.90;99.90
3492;DHT22;1760;52.480;13.422;2023-08-17T02:00:38;20.90;99.90
3492;DHT22;1760;52.480;13.422;2023-08-17T02:03:04;20.80;99.90
3492;DHT22;1760;52.480;13.422;2023-08-17T02:05:31;20.90;99.90
3492;DHT22;1760;52.480;13.422;2023-08-17T02:07:58;20.80;99.90
3492;DHT22;1760;52.480;13.422;2023-08-17T02:10:25;20.80;99.90
3492;DHT22;1760;52.480;13.422;2023-08-17T02:12:53;20.80;99.90
3492;DHT22;1760;52.480;13.422;2023-08-17T02:15:20;20.80;99.90
3492;DHT22;1760;52.480;13.422;2023-08-17T02:17:47;20.80;99.90
3492;DHT22;1760;52.480;13.422;2023-08-17T02:20:14;20.80;99.90
3492;DHT22;1760;52.480;13.422;2023-08-17T02:22:41;20.80;99.90
3492;DHT22;1760;52.480;13.422;2023-08-17T02:25:08;20.80;99.90
3492;DHT22;1760;52.480;13.422;2023-08-17T02:27:35;20.80;99.90
3492;DHT22;1760;52.480;13.422;2023-08-17T02:30:04;20.70;99.90
3492;DHT22;1760;52.480;13.422;2023-08-17T02:32:31;20.70;99.90
3492;DHT22;1760;52.480;13.422;2023-08-17T02:34:58;20.80;99.90
3492;DHT22;1760;52.480;13.422;2023-08-17T02:37:25;20.80;99.90
3492;DHT22;1760;52.480;13.422;2023-08-17T02:39:52;20.80;99.90
3492;DHT22;1760;52.480;13.422;2023-08-17T02:42:19;20.80;99.90
3492;DHT22;1760;52.480;13.422;2023-08-17T02:44:46;20.70;99.90
3492;DHT22;1760;52.480;13.422;2023-08-17T02:47:16;20.70;99.90
3492;DHT22;1760;52.480;13.422;2023-08-17T02:49:43;20.70;99.90
3492;DHT22;1760;52.480;13.422;2023-08-17T02:52:10;20.70;99.90
3492;DHT22;1760;52.480;13.422;2023-08-17T02:54:37;20.60;99.90
3492;DHT22;1760;52.480;13.422;2023-08-17T02:57:04;20.70;99.90
3492;DHT22;1760;52.480;13.422;2023-08-17T02:59:31;20.60;99.90
3492;DHT22;1760;52.480;13.422;2023-08-17T03:01:58;20.70;99.90
3492;DHT22;1760;52.480;13.422;2023-08-17T03:04:26;20.60;99.90
3492;DHT22;1760;52.480;13.422;2023-08-17T03:06:53;20.60;99.90
3492;DHT22;1760;52.480;13.422;2023-08-17T03:09:20;20.60;99.90
3492;DHT22;1760;52.480;13.422;2023-08-17T03:11:46;20.60;99.90
3492;DHT22;1760;52.480;13.422;2023-08-17T03:14:13;20.60;99.90
3492;DHT22;1760;52.480;13.422;2023-08-17T03:16:40;20.60;99.90
3492;DHT22;1760;52.480;13.422;2023-08-17T03:19:07;20.60;99.90
3492;DHT22;1760;52.480;13.422;2023-08-17T03:21:38;20.60;99.90
3492;DHT22;1760;52.480;13.422;2023-08-17T03:24:06;20.60;99.90
3492;DHT22;1760;52.480;13.422;2023-08-17T03:26:33;20.60;99.90
3492;DHT22;1760;52.480;13.422;2023-08-17T03:29:02;20.60;99.90
3492;DHT22;1760;52.480;13.422;2023-08-17T03:31:29;20.60;99.90
3492;DHT22;1760;52.480;13.422;2023-08-17T03:33:56;20.50;99.90
3492;DHT22;1760;52.480;13.422;2023-08-17T03:36:23;20.50;99.90
3492;DHT22;1760;52.480;13.422;2023-08-17T03:38:51;20.60;99.90
3492;DHT22;1760;52.480;13.422;2023-08-17T03:41:18;20.50;99.90
3492;DHT22;1760;52.480;13.422;2023-08-17T03:43:45;20.50;99.90
3492;DHT22;1760;52.480;13.422;2023-08-17T03:46:13;20.50;99.90
3492;DHT22;1760;52.480;13.422;2023-08-17T03:48:40;20.50;99.90
3492;DHT22;1760;52.480;13.422;2023-08-17T03:51:07;20.50;99.90
3492;DHT22;1760;52.480;13.422;2023-08-17T03:53:33;20.50;99.90
3492;DHT22;1760;52.480;13.422;2023-08-17T03:56:02;20.50;99.90
3492;DHT22;1760;52.480;13.422;2023-08-17T03:58:29;20.50;99.90
3492;DHT22;1760;52.480;13.422;2023-08-17T04:01:00;20.50;99.90
3492;DHT22;1760;52.480;13.422;2023-08-17T04:03:28;20.50;99.90
3492;DHT22;1760;52.480;13.422;2023-08-17T04:05:55;20.60;99.90
3492;DHT22;1760;52.480;13.422;2023-08-17T04:08:22;20.60;99.90
3492;DHT22;1760;52.480;13.422;2023-08-17T04:10:49;20.50;99.90
3492;DHT22;1760;52.480;13.422;2023-08-17T04:13:17;20.60;99.90
3492;DHT22;1760;52.480;13.422;2023-08-17T04:15:44;20.60;99.90
3492;DHT22;1760;52.480;13.422;2023-08-17T04:18:11;20.60;99.90
3492;DHT22;1760;52.480;13.422;2023-08-17T04:20:38;20.60;99.90
3492;DHT22;1760;52.480;13.422;2023-08-17T04:23:05;20.60;99.90
3492;DHT22;1760;52.480;13.422;2023-08-17T04:25:32;20.60;99.90
3492;DHT22;1760;52.480;13.422;2023-08-17T04:27:59;20.60;99.90
3492;DHT22;1760;52.480;13.422;2023-08-17T04:30:27;20.60;99.90
3492;DHT22;1760;52.480;13.422;2023-08-17T04:32:54;20.60;99.90
3492;DHT22;1760;52.480;13.422;2023-08-17T04:35:21;20.70;99.90
3492;DHT22;1760;52.480;13.422;2023-08-17T04:37:57;20.70;99.90
3492;DHT22;1760;52.480;13.422;2023-08-17T04:40:29;20.70;99.90
3492;DHT22;1760;52.480;13.422;2023-08-17T04:43:04;20.70;99.90
3492;DHT22;1760;52.480;13.422;2023-08-17T04:45:32;20.70;99.90
3492;DHT22;1760;52.480;13.422;2023-08-17T04:47:59;20.70;99.90
3492;DHT22;1760;52.480;13.422;2023-08-17T04:50:26;20.70;99.90
3492;DHT22;1760;52.480;13.422;2023-08-17T04:52:53;20.80;99.90
3492;DHT22;1760;52.480;13.422;2023-08-17T04:55:20;20.90;99.90
3492;DHT22;1760;52.480;13.422;2023-08-17T04:57:48;20.90;99.90
3492;DHT22;1760;52.480;13.422;2023-08-17T05:00:15;21.00;99.90
3492;DHT22;1760;52.480;13.422;2023-08-17T05:02:44;21.00;99.90
3492;DHT22;1760;52.480;13.422;2023-08-17T05:05:11;21.00;99.90
3492;DHT22;1760;52.480;13.422;2023-08-17T05:07:38;21.00;99.90
3492;DHT22;1760;52.480;13.422;2023-08-17T05:10:05;21.00;99.90
3492;DHT22;1760;52.480;13.422;2023-08-17T05:12:32;21.10;99.90
3492;DHT22;1760;52.480;13.422;2023-08-17T05:14:59;21.00;99.90
3492;DHT22;1760;52.480;13.422;2023-08-17T05:17:26;21.10;99.90
3492;DHT22;1760;52.480;13.422;2023-08-17T05:19:54;21.10;99.90
3492;DHT22;1760;52.480;13.422;2023-08-17T05:22:22;21.10;99.90
3492;DHT22;1760;52.480;13.422;2023-08-17T05:24:48;21.20;99.90
3492;DHT22;1760;52.480;13.422;2023-08-17T05:27:15;21.20;99.90
3492;DHT22;1760;52.480;13.422;2023-08-17T05:29:42;21.20;99.90
3492;DHT22;1760;52.480;13.422;2023-08-17T05:32:09;21.20;99.90
3492;DHT22;1760;52.480;13.422;2023-08-17T05:34:36;21.30;99.90
3492;DHT22;1760;52.480;13.422;2023-08-17T05:37:04;21.30;99.90
3492;DHT22;1760;52.480;13.422;2023-08-17T05:39:31;21.30;99.90
3492;DHT22;1760;52.480;13.422;2023-08-17T05:41:58;21.40;99.90
3492;DHT22;1760;52.480;13.422;2023-08-17T05:44:25;21.40;99.90
3492;DHT22;1760;52.480;13.422;2023-08-17T05:46:52;21.40;99.90
3492;DHT22;1760;52.480;13.422;2023-08-17T05:49:24;21.40;99.90
3492;DHT22;1760;52.480;13.422;2023-08-17T05:51:51;21.40;99.90
3492;DHT22;1760;52.480;13.422;2023-08-17T05:54:20;21.50;99.90
3492;DHT22;1760;52.480;13.422;2023-08-17T05:56:46;21.50;99.90
3492;DHT22;1760;52.480;13.422;2023-08-17T05:59:13;21.50;99.90
3492;DHT22;1760;52.480;13.422;2023-08-17T06:01:40;21.50;99.90
3492;DHT22;1760;52.480;13.422;2023-08-17T06:04:07;21.50;99.90
3492;DHT22;1760;52.480;13.422;2023-08-17T06:06:36;21.60;99.90
3492;DHT22;1760;52.480;13.422;2023-08-17T06:09:03;21.50;99.90
3492;DHT22;1760;52.480;13.422;2023-08-17T06:11:31;21.50;99.90
3492;DHT22;1760;52.480;13.422;2023-08-17T06:13:58;21.40;99.90
3492;DHT22;1760;52.480;13.422;2023-08-17T06:16:25;21.60;99.90
3492;DHT22;1760;52.480;13.422;2023-08-17T06:18:52;21.70;99.90
3492;DHT22;1760;52.480;13.422;2023-08-17T06:21:19;21.70;99.90
3492;DHT22;1760;52.480;13.422;2023-08-17T06:23:46;21.70;99.90
3492;DHT22;1760;52.480;13.422;2023-08-17T06:26:13;21.80;99.90
3492;DHT22;1760;52.480;13.422;2023-08-17T06:28:41;21.90;99.90
3492;DHT22;1760;52.480;13.422;2023-08-17T06:31:08;21.90;99.90
3492;DHT22;1760;52.480;13.422;2023-08-17T06:33:35;21.80;99.90
3492;DHT22;1760;52.480;13.422;2023-08-17T06:36:02;21.90;99.90
3492;DHT22;1760;52.480;13.422;2023-08-17T06:38:28;21.90;99.90
3492;DHT22;1760;52.480;13.422;2023-08-17T06:40:55;22.00;99.90
3492;DHT22;1760;52.480;13.422;2023-08-17T06:43:22;22.00;99.90
3492;DHT22;1760;52.480;13.422;2023-08-17T06:45:50;22.10;99.90
3492;DHT22;1760;52.480;13.422;2023-08-17T06:48:17;22.20;99.90
3492;DHT22;1760;52.480;13.422;2023-08-17T06:50:44;22.20;99.90
3492;DHT22;1760;52.480;13.422;2023-08-17T06:53:11;22.30;99.90
3492;DHT22;1760;52.480;13.422;2023-08-17T06:55:38;22.30;99.90
3492;DHT22;1760;52.480;13.422;2023-08-17T06:58:06;22.40;99.90
3492;DHT22;1760;52.480;13.422;2023-08-17T07:00:33;22.40;99.90
3492;DHT22;1760;52.480;13.422;2023-08-17T07:03:02;22.50;99.90
3492;DHT22;1760;52.480;13.422;2023-08-17T07:05:29;22.60;99.90
3492;DHT22;1760;52.480;13.422;2023-08-17T07:07:56;22.70;99.90
3492;DHT22;1760;52.480;13.422;2023-08-17T07:10:27;22.80;99.90
3492;DHT22;1760;52.480;13.422;2023-08-17T07:12:53;23.00;99.90
3492;DHT22;1760;52.480;13.422;2023-08-17T07:15:20;23.10;99.90
3492;DHT22;1760;52.480;13.422;2023-08-17T07:17:47;23.00;99.90
3492;DHT22;1760;52.480;13.422;2023-08-17T07:20:15;23.00;99.90
3492;DHT22;1760;52.480;13.422;2023-08-17T07:22:42;23.00;99.90
3492;DHT22;1760;52.480;13.422;2023-08-17T07:25:09;23.00;99.90
3492;DHT22;1760;52.480;13.422;2023-08-17T07:27:36;23.00;99.90
3492;DHT22;1760;52.480;13.422;2023-08-17T07:30:06;22.90;99.90
3492;DHT22;1760;52.480;13.422;2023-08-17T07:32:33;22.80;99.90
3492;DHT22;1760;52.480;13.422;2023-08-17T07:35:00;22.80;99.90
3492;DHT22;1760;52.480;13.422;2023-08-17T07:37:28;22.70;99.90
3492;DHT22;1760;52.480;13.422;2023-08-17T07:39:58;22.60;99.90
3492;DHT22;1760;52.480;13.422;2023-08-17T07:42:28;22.60;99.90
3492;DHT22;1760;52.480;13.422;2023-08-17T07:44:55;22.60;99.90
3492;DHT22;1760;52.480;13.422;2023-08-17T07:47:22;22.60;99.90
3492;DHT22;1760;52.480;13.422;2023-08-17T07:49:49;22.60;99.90
3492;DHT22;1760;52.480;13.422;2023-08-17T07:52:16;22.60;99.90
3492;DHT22;1760;52.480;13.422;2023-08-17T07:54:45;22.70;99.90
3492;DHT22;1760;52.480;13.422;2023-08-17T07:57:12;22.80;99.90
3492;DHT22;1760;52.480;13.422;2023-08-17T07:59:39;22.90;99.90
3492;DHT22;1760;52.480;13.422;2023-08-17T08:02:06;23.00;99.90
3492;DHT22;1760;52.480;13.422;2023-08-17T08:04:33;23.00;99.90
3492;DHT22;1760;52.480;13.422;2023-08-17T08:07:00;23.00;99.90
3492;DHT22;1760;52.480;13.422;2023-08-17T08:09:27;23.10;99.90
3492;DHT22;1760;52.480;13.422;2023-08-17T08:11:55;23.40;99.90
3492;DHT22;1760;52.480;13.422;2023-08-17T08:14:22;23.80;99.90
3492;DHT22;1760;52.480;13.422;2023-08-17T08:16:49;24.70;99.90
3492;DHT22;1760;52.480;13.422;2023-08-17T08:19:16;26.20;99.90
3492;DHT22;1760;52.480;13.422;2023-08-17T08:21:43;27.60;99.90
3492;DHT22;1760;52.480;13.422;2023-08-17T08:24:10;29.20;99.90
3492;DHT22;1760;52.480;13.422;2023-08-17T08:26:37;30.20;99.90
3492;DHT22;1760;52.480;13.422;2023-08-17T08:29:05;30.30;99.90
3492;DHT22;1760;52.480;13.422;2023-08-17T08:31:32;30.50;99.90
3492;DHT22;1760;52.480;13.422;2023-08-17T08:33:59;30.90;99.90
3492;DHT22;1760;52.480;13.422;2023-08-17T08:36:26;30.90;98.80
3492;DHT22;1760;52.480;13.422;2023-08-17T08:38:53;30.50;98.80
3492;DHT22;1760;52.480;13.422;2023-08-17T08:41:20;30.00;99.90
3492;DHT22;1760;52.480;13.422;2023-08-17T08:43:48;29.60;99.90
3492;DHT22;1760;52.480;13.422;2023-08-17T08:46:17;29.10;99.90
3492;DHT22;1760;52.480;13.422;2023-08-17T08:48:45;28.60;99.90
3492;DHT22;1760;52.480;13.422;2023-08-17T08:51:17;28.10;99.90
3492;DHT22;1760;52.480;13.422;2023-08-17T08:53:54;27.50;99.90
3492;DHT22;1760;52.480;13.422;2023-08-17T08:56:28;26.80;99.90
3492;DHT22;1760;52.480;13.422;2023-08-17T08:58:58;26.40;99.90
3492;DHT22;1760;52.480;13.422;2023-08-17T09:01:27;26.00;99.90
3492;DHT22;1760;52.480;13.422;2023-08-17T09:03:54;25.60;99.90
3492;DHT22;1760;52.480;13.422;2023-08-17T09:06:23;25.40;99.90
3492;DHT22;1760;52.480;13.422;2023-08-17T09:08:52;25.10;99.90
3492;DHT22;1760;52.480;13.422;2023-08-17T09:11:19;24.90;99.90
3492;DHT22;1760;52.480;13.422;2023-08-17T09:13:46;24.70;99.90
3492;DHT22;1760;52.480;13.422;2023-08-17T09:16:13;24.60;99.90
3492;DHT22;1760;52.480;13.422;2023-08-17T09:18:45;24.50;99.90
3492;DHT22;1760;52.480;13.422;2023-08-17T09:21:20;24.50;99.90
3492;DHT22;1760;52.480;13.422;2023-08-17T09:23:51;24.40;99.90
3492;DHT22;1760;52.480;13.422;2023-08-17T09:26:19;24.60;99.90
3492;DHT22;1760;52.480;13.422;2023-08-17T09:28:48;24.70;99.90
3492;DHT22;1760;52.480;13.422;2023-08-17T09:31:15;24.90;99.90
3492;DHT22;1760;52.480;13.422;2023-08-17T09:33:43;25.00;99.90
3492;DHT22;1760;52.480;13.422;2023-08-17T09:36:15;25.10;99.90
3492;DHT22;1760;52.480;13.422;2023-08-17T09:38:41;25.30;99.90
3492;DHT22;1760;52.480;13.422;2023-08-17T09:41:08;25.40;99.90
3492;DHT22;1760;52.480;13.422;2023-08-17T09:43:35;25.60;99.90
3492;DHT22;1760;52.480;13.422;2023-08-17T09:46:03;26.00;99.90
3492;DHT22;1760;52.480;13.422;2023-08-17T09:48:30;26.50;99.90
3492;DHT22;1760;52.480;13.422;2023-08-17T09:50:59;26.60;99.90
3492;DHT22;1760;52.480;13.422;2023-08-17T09:53:27;26.60;99.90
3492;DHT22;1760;52.480;13.422;2023-08-17T09:55:54;26.60;99.90
3492;DHT22;1760;52.480;13.422;2023-08-17T09:58:21;26.80;99.90
3492;DHT22;1760;52.480;13.422;2023-08-17T10:00:50;27.10;99.90
3492;DHT22;1760;52.480;13.422;2023-08-17T10:03:19;27.20;99.90
3492;DHT22;1760;52.480;13.422;2023-08-17T10:05:51;27.20;99.90
3492;DHT22;1760;52.480;13.422;2023-08-17T10:08:21;27.20;99.90
3492;DHT22;1760;52.480;13.422;2023-08-17T10:10:49;27.00;99.90
3492;DHT22;1760;52.480;13.422;2023-08-17T10:13:23;26.80;99.90
3492;DHT22;1760;52.480;13.422;2023-08-17T10:15:59;26.60;99.90
3492;DHT22;1760;52.480;13.422;2023-08-17T10:18:34;26.20;99.90
3492;DHT22;1760;52.480;13.422;2023-08-17T10:21:07;25.90;99.90
3492;DHT22;1760;52.480;13.422;2023-08-17T10:23:38;25.60;99.90
3492;DHT22;1760;52.480;13.422;2023-08-17T10:26:06;25.40;99.90
3492;DHT22;1760;52.480;13.422;2023-08-17T10:28:34;25.30;99.90
3492;DHT22;1760;52.480;13.422;2023-08-17T10:31:01;25.20;99.90
3492;DHT22;1760;52.480;13.422;2023-08-17T10:33:29;25.30;99.90
3492;DHT22;1760;52.480;13.422;2023-08-17T10:35:56;25.50;99.90
3492;DHT22;1760;52.480;13.422;2023-08-17T10:38:23;26.00;99.90
3492;DHT22;1760;52.480;13.422;2023-08-17T10:41:10;26.40;99.90
3492;DHT22;1760;52.480;13.422;2023-08-17T10:43:57;26.70;99.90
3492;DHT22;1760;52.480;13.422;2023-08-17T10:46:33;27.20;99.90
3492;DHT22;1760;52.480;13.422;2023-08-17T10:49:04;27.60;99.90
3492;DHT22;1760;52.480;13.422;2023-08-17T10:51:32;28.10;99.90
3492;DHT22;1760;52.480;13.422;2023-08-17T10:54:02;28.50;99.90
3492;DHT22;1760;52.480;13.422;2023-08-17T10:56:32;28.60;99.90
3492;DHT22;1760;52.480;13.422;2023-08-17T10:58:59;28.70;99.90
3492;DHT22;1760;52.480;13.422;2023-08-17T11:01:40;28.80;99.90
3492;DHT22;1760;52.480;13.422;2023-08-17T11:04:11;29.10;99.90
3492;DHT22;1760;52.480;13.422;2023-08-17T11:06:39;29.30;99.90
3492;DHT22;1760;52.480;13.422;2023-08-17T11:09:07;29.40;99.90
3492;DHT22;1760;52.480;13.422;2023-08-17T11:11:36;29.60;99.90
3492;DHT22;1760;52.480;13.422;2023-08-17T11:14:03;29.60;99.90
3492;DHT22;1760;52.480;13.422;2023-08-17T11:16:30;29.60;99.90
3492;DHT22;1760;52.480;13.422;2023-08-17T11:18:56;29.60;99.90
3492;DHT22;1760;52.480;13.422;2023-08-17T11:21:25;29.50;99.90
3492;DHT22;1760;52.480;13.422;2023-08-17T11:23:56;29.40;99.90
3492;DHT22;1760;52.480;13.422;2023-08-17T11:26:23;29.40;99.90
3492;DHT22;1760;52.480;13.422;2023-08-17T11:28:52;29.30;99.90
3492;DHT22;1760;52.480;13.422;2023-08-17T11:31:19;29.10;99.90
3492;DHT22;1760;52.480;13.422;2023-08-17T11:33:46;28.80;99.90
3492;DHT22;1760;52.480;13.422;2023-08-17T11:36:13;28.70;99.90
3492;DHT22;1760;52.480;13.422;2023-08-17T11:38:41;28.60;99.90
3492;DHT22;1760;52.480;13.422;2023-08-17T11:41:09;28.40;99.90
3492;DHT22;1760;52.480;13.422;2023-08-17T11:43:36;28.20;99.90
3492;DHT22;1760;52.480;13.422;2023-08-17T11:46:05;28.10;99.90
3492;DHT22;1760;52.480;13.422;2023-08-17T11:48:32;28.00;99.90
3492;DHT22;1760;52.480;13.422;2023-08-17T11:51:00;27.90;99.90
3492;DHT22;1760;52.480;13.422;2023-08-17T11:53:33;27.70;99.90
3492;DHT22;1760;52.480;13.422;2023-08-17T11:56:00;27.60;99.90
3492;DHT22;1760;52.480;13.422;2023-08-17T11:58:41;27.70;99.90
3492;DHT22;1760;52.480;13.422;2023-08-17T12:01:10;27.70;99.90
3492;DHT22;1760;52.480;13.422;2023-08-17T12:03:38;27.80;99.90
3492;DHT22;1760;52.480;13.422;2023-08-17T12:06:06;27.90;99.90
3492;DHT22;1760;52.480;13.422;2023-08-17T12:08:33;28.10;99.90
3492;DHT22;1760;52.480;13.422;2023-08-17T12:11:00;28.20;99.90
3492;DHT22;1760;52.480;13.422;2023-08-17T12:13:34;28.40;99.90
3492;DHT22;1760;52.480;13.422;2023-08-17T12:16:02;28.60;99.90
3492;DHT22;1760;52.480;13.422;2023-08-17T12:18:32;28.60;99.90
3492;DHT22;1760;52.480;13.422;2023-08-17T12:20:59;28.60;99.90
3492;DHT22;1760;52.480;13.422;2023-08-17T12:23:26;28.70;99.90
3492;DHT22;1760;52.480;13.422;2023-08-17T12:25:54;28.60;99.90
3492;DHT22;1760;52.480;13.422;2023-08-17T12:28:22;28.50;99.90
3492;DHT22;1760;52.480;13.422;2023-08-17T12:30:57;28.60;99.90
3492;DHT22;1760;52.480;13.422;2023-08-17T12:33:24;28.80;99.90
3492;DHT22;1760;52.480;13.422;2023-08-17T12:35:53;28.90;99.90
3492;DHT22;1760;52.480;13.422;2023-08-17T12:38:20;29.00;99.90
3492;DHT22;1760;52.480;13.422;2023-08-17T12:40:47;29.10;99.90
3492;DHT22;1760;52.480;13.422;2023-08-17T12:43:15;29.00;99.90
3492;DHT22;1760;52.480;13.422;2023-08-17T12:45:42;28.90;99.90
3492;DHT22;1760;52.480;13.422;2023-08-17T12:48:09;28.90;99.90
3492;DHT22;1760;52.480;13.422;2023-08-17T12:50:36;28.70;99.90
3492;DHT22;1760;52.480;13.422;2023-08-17T12:53:04;28.60;99.90
3492;DHT22;1760;52.480;13.422;2023-08-17T12:55:31;28.60;99.90
3492;DHT22;1760;52.480;13.422;2023-08-17T12:57:58;28.60;99.90
3492;DHT22;1760;52.480;13.422;2023-08-17T13:00:25;28.70;99.90
3492;DHT22;1760;52.480;13.422;2023-08-17T13:02:52;28.80;99.90
3492;DHT22;1760;52.480;13.422;2023-08-17T13:05:19;29.00;99.90
3492;DHT22;1760;52.480;13.422;2023-08-17T13:07:46;29.20;99.90
3492;DHT22;1760;52.480;13.422;2023-08-17T13:10:14;29.30;99.90
3492;DHT22;1760;52.480;13.422;2023-08-17T13:12:41;29.50;99.90
3492;DHT22;1760;52.480;13.422;2023-08-17T13:15:12;29.50;99.90
3492;DHT22;1760;52.480;13.422;2023-08-17T13:17:39;29.60;99.90
3492;DHT22;1760;52.480;13.422;2023-08-17T13:20:07;29.60;99.90
3492;DHT22;1760;52.480;13.422;2023-08-17T13:22:35;29.70;99.90
3492;DHT22;1760;52.480;13.422;2023-08-17T13:25:02;29.70;99.90
3492;DHT22;1760;52.480;13.422;2023-08-17T13:27:30;29.70;99.90
3492;DHT22;1760;52.480;13.422;2023-08-17T13:29:57;29.60;99.90
3492;DHT22;1760;52.480;13.422;2023-08-17T13:32:25;29.40;99.90
3492;DHT22;1760;52.480;13.422;2023-08-17T13:34:52;29.20;99.90
3492;DHT22;1760;52.480;13.422;2023-08-17T13:37:19;28.90;99.90
3492;DHT22;1760;52.480;13.422;2023-08-17T13:39:46;28.90;99.90
3492;DHT22;1760;52.480;13.422;2023-08-17T13:42:13;29.00;99.90
3492;DHT22;1760;52.480;13.422;2023-08-17T13:44:41;29.10;99.90
3492;DHT22;1760;52.480;13.422;2023-08-17T13:47:08;29.20;99.90
3492;DHT22;1760;52.480;13.422;2023-08-17T13:49:35;29.30;99.90
3492;DHT22;1760;52.480;13.422;2023-08-17T13:52:02;29.40;99.90
3492;DHT22;1760;52.480;13.422;2023-08-17T13:54:29;29.30;99.90
3492;DHT22;1760;52.480;13.422;2023-08-17T13:56:56;29.20;99.90
3492;DHT22;1760;52.480;13.422;2023-08-17T13:59:22;29.20;99.90
3492;DHT22;1760;52.480;13.422;2023-08-17T14:01:51;29.20;99.90
3492;DHT22;1760;52.480;13.422;2023-08-17T14:04:18;29.10;99.90
3492;DHT22;1760;52.480;13.422;2023-08-17T14:06:47;29.00;99.90
3492;DHT22;1760;52.480;13.422;2023-08-17T14:09:15;29.00;99.90
3492;DHT22;1760;52.480;13.422;2023-08-17T14:11:42;29.00;99.90
3492;DHT22;1760;52.480;13.422;2023-08-17T14:14:09;29.00;99.90
3492;DHT22;1760;52.480;13.422;2023-08-17T14:16:36;29.00;99.90
3492;DHT22;1760;52.480;13.422;2023-08-17T14:19:05;29.00;99.90
3492;DHT22;1760;52.480;13.422;2023-08-17T14:21:31;29.00;99.90
3492;DHT22;1760;52.480;13.422;2023-08-17T14:23:58;28.90;99.90
3492;DHT22;1760;52.480;13.422;2023-08-17T14:26:25;28.90;99.90
3492;DHT22;1760;52.480;13.422;2023-08-17T14:28:52;29.00;99.90
3492;DHT22;1760;52.480;13.422;2023-08-17T14:31:19;29.10;99.90
3492;DHT22;1760;52.480;13.422;2023-08-17T14:33:46;29.30;99.90
3492;DHT22;1760;52.480;13.422;2023-08-17T14:36:15;29.30;99.90
3492;DHT22;1760;52.480;13.422;2023-08-17T14:38:42;29.10;99.90
3492;DHT22;1760;52.480;13.422;2023-08-17T14:41:09;29.00;99.90
3492;DHT22;1760;52.480;13.422;2023-08-17T14:43:36;29.00;99.90
3492;DHT22;1760;52.480;13.422;2023-08-17T14:46:03;28.80;99.90
3492;DHT22;1760;52.480;13.422;2023-08-17T14:48:30;28.70;99.90
3492;DHT22;1760;52.480;13.422;2023-08-17T14:50:57;28.70;99.90
3492;DHT22;1760;52.480;13.422;2023-08-17T14:53:25;28.70;99.90
3492;DHT22;1760;52.480;13.422;2023-08-17T14:55:52;28.80;99.90
3492;DHT22;1760;52.480;13.422;2023-08-17T14:58:19;28.80;99.90
3492;DHT22;1760;52.480;13.422;2023-08-17T15:00:46;28.80;99.90
3492;DHT22;1760;52.480;13.422;2023-08-17T15:03:12;28.90;99.90
3492;DHT22;1760;52.480;13.422;2023-08-17T15:05:39;29.00;99.90
3492;DHT22;1760;52.480;13.422;2023-08-17T15:08:06;29.00;99.90
3492;DHT22;1760;52.480;13.422;2023-08-17T15:10:35;29.00;99.90
3492;DHT22;1760;52.480;13.422;2023-08-17T15:13:02;28.80;99.90
3492;DHT22;1760;52.480;13.422;2023-08-17T15:15:29;28.80;99.90
3492;DHT22;1760;52.480;13.422;2023-08-17T15:17:56;28.80;99.90
3492;DHT22;1760;52.480;13.422;2023-08-17T15:20:23;28.70;99.90
3492;DHT22;1760;52.480;13.422;2023-08-17T15:22:50;28.60;99.90
3492;DHT22;1760;52.480;13.422;2023-08-17T15:25:17;28.60;99.90
3492;DHT22;1760;52.480;13.422;2023-08-17T15:27:45;28.60;99.90
3492;DHT22;1760;52.480;13.422;2023-08-17T15:30:12;28.60;99.90
3492;DHT22;1760;52.480;13.422;2023-08-17T15:32:39;28.50;99.90
3492;DHT22;1760;52.480;13.422;2023-08-17T15:35:07;28.50;99.90
3492;DHT22;1760;52.480;13.422;2023-08-17T15:37:35;28.40;99.90
3492;DHT22;1760;52.480;13.422;2023-08-17T15:40:03;28.40;99.90
3492;DHT22;1760;52.480;13.422;2023-08-17T15:42:30;28.40;99.90
3492;DHT22;1760;52.480;13.422;2023-08-17T15:44:58;28.40;99.90
3492;DHT22;1760;52.480;13.422;2023-08-17T15:47:25;28.30;99.90
3492;DHT22;1760;52.480;13.422;2023-08-17T15:49:52;28.20;99.90